sensor_id;sensor_type;location;lat;lon;timestamp;P1;durP1;ratioP1;P2;durP2;ratioP2
33654;SDS011;19997;51.274;22.506;2023-04-10T00:00:33;21.65;;;11.38;;
33654;SDS011;19997;51.274;22.506;2023-04-10T00:03:03;23.45;;;11.98;;
33654;SDS011;19997;51.274;22.506;2023-04-10T00:05:30;19.75;;;11.85;;
33654;SDS011;19997;51.274;22.506;2023-04-10T00:07:57;25.20;;;12.68;;
33654;SDS011;19997;51.274;22.506;2023-04-10T00:10:25;22.15;;;12.13;;
33654;SDS011;19997;51.274;22.506;2023-04-10T00:12:54;19.48;;;11.55;;
33654;SDS011;19997;51.274;22.506;2023-04-10T00:15:21;21.42;;;12.02;;
33654;SDS011;19997;51.274;22.506;2023-04-10T00:17:49;25.15;;;12.57;;
33654;SDS011;19997;51.274;22.506;2023-04-10T00:20:21;24.67;;;13.60;;
33654;SDS011;19997;51.274;22.506;2023-04-10T00:22:50;23.63;;;13.50;;
33654;SDS011;19997;51.274;22.506;2023-04-10T00:25:17;23.77;;;12.48;;
33654;SDS011;19997;51.274;22.506;2023-04-10T00:27:44;27.08;;;14.55;;
33654;SDS011;19997;51.274;22.506;2023-04-10T00:30:11;32.92;;;15.18;;
33654;SDS011;19997;51.274;22.506;2023-04-10T00:32:39;27.15;;;13.82;;
33654;SDS011;19997;51.274;22.506;2023-04-10T00:35:07;23.55;;;13.32;;
33654;SDS011;19997;51.274;22.506;2023-04-10T00:37:36;29.27;;;14.57;;
33654;SDS011;19997;51.274;22.506;2023-04-10T00:40:04;29.90;;;14.75;;
33654;SDS011;19997;51.274;22.506;2023-04-10T00:42:32;32.67;;;15.48;;
33654;SDS011;19997;51.274;22.506;2023-04-10T00:44:59;28.52;;;14.00;;
33654;SDS011;19997;51.274;22.506;2023-04-10T00:47:26;29.88;;;14.63;;
33654;SDS011;19997;51.274;22.506;2023-04-10T00:49:54;26.00;;;13.52;;
33654;SDS011;19997;51.274;22.506;2023-04-10T00:52:21;27.40;;;14.32;;
33654;SDS011;19997;51.274;22.506;2023-04-10T00:54:51;30.17;;;15.43;;
33654;SDS011;19997;51.274;22.506;2023-04-10T00:57:18;28.98;;;14.82;;
33654;SDS011;19997;51.274;22.506;2023-04-10T00:59:45;30.38;;;14.50;;
33654;SDS011;19997;51.274;22.506;2023-04-10T01:02:15;30.97;;;15.50;;
33654;SDS011;19997;51.274;22.506;2023-04-10T01:04:42;30.55;;;15.15;;
33654;SDS011;19997;51.274;22.506;2023-04-10T01:07:11;33.15;;;15.63;;
33654;SDS011;19997;51.274;22.506;2023-04-10T01:09:46;25.85;;;13.85;;
33654;SDS011;19997;51.274;22.506;2023-04-10T01:12:28;29.23;;;15.50;;
33654;SDS011;19997;51.274;22.506;2023-04-10T01:15:06;30.50;;;14.45;;
33654;SDS011;19997;51.274;22.506;2023-04-10T01:17:39;30.95;;;14.70;;
33654;SDS011;19997;51.274;22.506;2023-04-10T01:20:11;30.42;;;15.27;;
33654;SDS011;19997;51.274;22.506;2023-04-10T01:22:47;27.85;;;13.82;;
33654;SDS011;19997;51.274;22.506;2023-04-10T01:25:29;29.58;;;14.68;;
33654;SDS011;19997;51.274;22.506;2023-04-10T01:28:19;31.55;;;14.27;;
33654;SDS011;19997;51.274;22.506;2023-04-10T01:30:58;30.73;;;15.70;;
33654;SDS011;19997;51.274;22.506;2023-04-10T01:36:06;33.33;;;15.43;;
33654;SDS011;19997;51.274;22.506;2023-04-10T01:38:35;33.08;;;16.60;;
33654;SDS011;19997;51.274;22.506;2023-04-10T01:41:07;31.90;;;16.00;;
33654;SDS011;19997;51.274;22.506;2023-04-10T01:43:35;27.90;;;14.70;;
33654;SDS011;19997;51.274;22.506;2023-04-10T01:46:06;30.65;;;16.27;;
33654;SDS011;19997;51.274;22.506;2023-04-10T01:48:33;33.03;;;15.88;;
33654;SDS011;19997;51.274;22.506;2023-04-10T01:51:02;33.22;;;15.90;;
33654;SDS011;19997;51.274;22.506;2023-04-10T01:53:31;27.48;;;15.50;;
33654;SDS011;19997;51.274;22.506;2023-04-10T01:55:59;33.65;;;14.70;;
33654;SDS011;19997;51.274;22.506;2023-04-10T01:58:29;29.90;;;15.70;;
33654;SDS011;19997;51.274;22.506;2023-04-10T02:00:57;28.17;;;14.57;;
33654;SDS011;19997;51.274;22.506;2023-04-10T02:03:26;35.92;;;15.23;;
33654;SDS011;19997;51.274;22.506;2023-04-10T02:05:56;27.77;;;14.52;;
33654;SDS011;19997;51.274;22.506;2023-04-10T02:08:33;33.05;;;14.85;;
33654;SDS011;19997;51.274;22.506;2023-04-10T02:11:07;33.63;;;15.95;;
33654;SDS011;19997;51.274;22.506;2023-04-10T02:13:38;32.38;;;15.60;;
33654;SDS011;19997;51.274;22.506;2023-04-10T02:16:07;30.00;;;14.35;;
33654;SDS011;19997;51.274;22.506;2023-04-10T02:18:37;35.20;;;15.68;;
33654;SDS011;19997;51.274;22.506;2023-04-10T02:21:07;28.23;;;14.48;;
33654;SDS011;19997;51.274;22.506;2023-04-10T02:23:34;31.58;;;15.10;;
33654;SDS011;19997;51.274;22.506;2023-04-10T02:26:06;28.85;;;15.10;;
33654;SDS011;19997;51.274;22.506;2023-04-10T02:28:36;28.48;;;14.20;;
33654;SDS011;19997;51.274;22.506;2023-04-10T02:31:05;34.63;;;15.20;;
33654;SDS011;19997;51.274;22.506;2023-04-10T02:33:32;27.70;;;14.38;;
33654;SDS011;19997;51.274;22.506;2023-04-10T02:36:01;33.03;;;15.43;;
33654;SDS011;19997;51.274;22.506;2023-04-10T02:38:28;32.70;;;14.70;;
33654;SDS011;19997;51.274;22.506;2023-04-10T02:40:55;30.58;;;15.15;;
33654;SDS011;19997;51.274;22.506;2023-04-10T02:43:22;34.10;;;15.23;;
33654;SDS011;19997;51.274;22.506;2023-04-10T02:45:50;26.00;;;13.93;;
33654;SDS011;19997;51.274;22.506;2023-04-10T02:48:24;30.30;;;14.20;;
33654;SDS011;19997;51.274;22.506;2023-04-10T02:50:57;30.33;;;15.77;;
33654;SDS011;19997;51.274;22.506;2023-04-10T02:53:28;26.15;;;13.52;;
33654;SDS011;19997;51.274;22.506;2023-04-10T02:55:58;29.45;;;14.38;;
33654;SDS011;19997;51.274;22.506;2023-04-10T02:58:26;29.92;;;15.23;;
33654;SDS011;19997;51.274;22.506;2023-04-10T03:00:56;28.42;;;14.35;;
33654;SDS011;19997;51.274;22.506;2023-04-10T03:03:43;28.58;;;13.65;;
33654;SDS011;19997;51.274;22.506;2023-04-10T03:06:15;27.65;;;13.90;;
33654;SDS011;19997;51.274;22.506;2023-04-10T03:08:45;23.40;;;13.13;;
33654;SDS011;19997;51.274;22.506;2023-04-10T03:11:12;25.48;;;13.40;;
33654;SDS011;19997;51.274;22.506;2023-04-10T03:13:39;24.73;;;12.90;;
33654;SDS011;19997;51.274;22.506;2023-04-10T03:16:07;22.20;;;13.32;;
33654;SDS011;19997;51.274;22.506;2023-04-10T03:18:34;29.58;;;15.43;;
33654;SDS011;19997;51.274;22.506;2023-04-10T03:21:02;22.98;;;12.93;;
33654;SDS011;19997;51.274;22.506;2023-04-10T03:23:29;20.95;;;12.02;;
33654;SDS011;19997;51.274;22.506;2023-04-10T03:25:57;19.70;;;11.63;;
33654;SDS011;19997;51.274;22.506;2023-04-10T03:28:27;22.25;;;12.18;;
33654;SDS011;19997;51.274;22.506;2023-04-10T03:30:55;25.00;;;12.63;;
33654;SDS011;19997;51.274;22.506;2023-04-10T03:33:22;21.50;;;11.88;;
33654;SDS011;19997;51.274;22.506;2023-04-10T03:35:49;21.23;;;12.43;;
33654;SDS011;19997;51.274;22.506;2023-04-10T03:38:17;23.80;;;11.45;;
33654;SDS011;19997;51.274;22.506;2023-04-10T03:40:45;21.95;;;11.98;;
33654;SDS011;19997;51.274;22.506;2023-04-10T03:43:14;22.63;;;12.25;;
33654;SDS011;19997;51.274;22.506;2023-04-10T03:45:41;24.42;;;12.50;;
33654;SDS011;19997;51.274;22.506;2023-04-10T03:48:09;16.63;;;10.45;;
33654;SDS011;19997;51.274;22.506;2023-04-10T03:50:40;20.20;;;12.07;;
33654;SDS011;19997;51.274;22.506;2023-04-10T03:53:08;22.92;;;12.10;;
33654;SDS011;19997;51.274;22.506;2023-04-10T03:55:36;21.42;;;11.85;;
33654;SDS011;19997;51.274;22.506;2023-04-10T03:58:03;18.45;;;10.90;;
33654;SDS011;19997;51.274;22.506;2023-04-10T04:00:32;22.70;;;11.20;;
33654;SDS011;19997;51.274;22.506;2023-04-10T04:03:09;22.30;;;10.50;;
33654;SDS011;19997;51.274;22.506;2023-04-10T04:05:55;18.58;;;10.95;;
33654;SDS011;19997;51.274;22.506;2023-04-10T04:08:22;18.10;;;10.43;;
33654;SDS011;19997;51.274;22.506;2023-04-10T04:11:17;19.08;;;11.02;;
33654;SDS011;19997;51.274;22.506;2023-04-10T04:13:55;20.42;;;10.70;;
33654;SDS011;19997;51.274;22.506;2023-04-10T04:16:47;16.17;;;9.70;;
33654;SDS011;19997;51.274;22.506;2023-04-10T04:19:37;20.20;;;12.18;;
33654;SDS011;19997;51.274;22.506;2023-04-10T04:22:19;19.05;;;9.77;;
33654;SDS011;19997;51.274;22.506;2023-04-10T04:25:06;18.52;;;10.07;;
33654;SDS011;19997;51.274;22.506;2023-04-10T04:28:02;19.98;;;10.90;;
33654;SDS011;19997;51.274;22.506;2023-04-10T04:30:32;18.17;;;10.10;;
33654;SDS011;19997;51.274;22.506;2023-04-10T04:33:10;22.88;;;11.15;;
33654;SDS011;19997;51.274;22.506;2023-04-10T04:38:35;21.83;;;10.90;;
33654;SDS011;19997;51.274;22.506;2023-04-10T04:41:25;25.52;;;11.27;;
33654;SDS011;19997;51.274;22.506;2023-04-10T04:44:06;21.10;;;10.50;;
33654;SDS011;19997;51.274;22.506;2023-04-10T04:46:51;21.30;;;9.88;;
33654;SDS011;19997;51.274;22.506;2023-04-10T04:49:55;17.35;;;9.88;;
33654;SDS011;19997;51.274;22.506;2023-04-10T04:52:42;18.95;;;10.65;;
33654;SDS011;19997;51.274;22.506;2023-04-10T04:55:25;20.27;;;11.13;;
33654;SDS011;19997;51.274;22.506;2023-04-10T04:57:57;20.02;;;11.18;;
33654;SDS011;19997;51.274;22.506;2023-04-10T05:00:38;20.58;;;11.02;;
33654;SDS011;19997;51.274;22.506;2023-04-10T05:03:20;22.60;;;11.80;;
33654;SDS011;19997;51.274;22.506;2023-04-10T05:06:21;19.35;;;11.23;;
33654;SDS011;19997;51.274;22.506;2023-04-10T05:09:15;23.23;;;11.43;;
33654;SDS011;19997;51.274;22.506;2023-04-10T05:12:05;17.45;;;10.25;;
33654;SDS011;19997;51.274;22.506;2023-04-10T05:15:08;22.10;;;11.02;;
33654;SDS011;19997;51.274;22.506;2023-04-10T05:17:41;18.88;;;11.32;;
33654;SDS011;19997;51.274;22.506;2023-04-10T05:20:41;20.50;;;11.02;;
33654;SDS011;19997;51.274;22.506;2023-04-10T05:23:18;22.75;;;12.18;;
33654;SDS011;19997;51.274;22.506;2023-04-10T05:26:04;21.17;;;10.82;;
33654;SDS011;19997;51.274;22.506;2023-04-10T05:29:03;18.90;;;12.00;;
33654;SDS011;19997;51.274;22.506;2023-04-10T05:31:49;18.55;;;10.45;;
33654;SDS011;19997;51.274;22.506;2023-04-10T05:34:35;20.70;;;10.43;;
33654;SDS011;19997;51.274;22.506;2023-04-10T05:37:20;19.40;;;9.90;;
33654;SDS011;19997;51.274;22.506;2023-04-10T05:39:58;20.58;;;9.40;;
33654;SDS011;19997;51.274;22.506;2023-04-10T05:42:25;13.63;;;8.60;;
33654;SDS011;19997;51.274;22.506;2023-04-10T05:45:14;15.18;;;8.52;;
33654;SDS011;19997;51.274;22.506;2023-04-10T05:47:51;11.65;;;7.82;;
33654;SDS011;19997;51.274;22.506;2023-04-10T05:50:39;12.98;;;8.40;;
33654;SDS011;19997;51.274;22.506;2023-04-10T05:53:06;16.38;;;8.63;;
33654;SDS011;19997;51.274;22.506;2023-04-10T05:55:57;12.95;;;7.68;;
33654;SDS011;19997;51.274;22.506;2023-04-10T05:58:54;20.25;;;8.80;;
33654;SDS011;19997;51.274;22.506;2023-04-10T06:01:38;14.82;;;7.47;;
33654;SDS011;19997;51.274;22.506;2023-04-10T06:04:06;11.07;;;7.20;;
33654;SDS011;19997;51.274;22.506;2023-04-10T06:06:34;13.85;;;7.05;;
33654;SDS011;19997;51.274;22.506;2023-04-10T06:09:01;15.52;;;8.38;;
33654;SDS011;19997;51.274;22.506;2023-04-10T06:11:29;12.52;;;7.90;;
33654;SDS011;19997;51.274;22.506;2023-04-10T06:13:57;14.15;;;7.95;;
33654;SDS011;19997;51.274;22.506;2023-04-10T06:16:31;13.30;;;6.75;;
33654;SDS011;19997;51.274;22.506;2023-04-10T06:18:59;10.90;;;6.35;;
33654;SDS011;19997;51.274;22.506;2023-04-10T06:21:26;13.00;;;7.63;;
33654;SDS011;19997;51.274;22.506;2023-04-10T06:23:53;17.02;;;7.57;;
33654;SDS011;19997;51.274;22.506;2023-04-10T06:26:20;11.20;;;6.30;;
33654;SDS011;19997;51.274;22.506;2023-04-10T06:28:49;13.40;;;6.68;;
33654;SDS011;19997;51.274;22.506;2023-04-10T06:31:18;14.43;;;5.82;;
33654;SDS011;19997;51.274;22.506;2023-04-10T06:33:46;11.05;;;6.22;;
33654;SDS011;19997;51.274;22.506;2023-04-10T06:36:15;12.27;;;7.20;;
33654;SDS011;19997;51.274;22.506;2023-04-10T06:38:47;12.88;;;6.70;;
33654;SDS011;19997;51.274;22.506;2023-04-10T06:41:14;11.00;;;5.75;;
33654;SDS011;19997;51.274;22.506;2023-04-10T06:43:41;9.65;;;6.75;;
33654;SDS011;19997;51.274;22.506;2023-04-10T06:46:11;12.70;;;5.72;;
33654;SDS011;19997;51.274;22.506;2023-04-10T06:48:40;9.57;;;5.25;;
33654;SDS011;19997;51.274;22.506;2023-04-10T06:51:07;13.35;;;5.57;;
33654;SDS011;19997;51.274;22.506;2023-04-10T06:53:34;7.43;;;5.30;;
33654;SDS011;19997;51.274;22.506;2023-04-10T06:56:01;7.40;;;4.75;;
33654;SDS011;19997;51.274;22.506;2023-04-10T06:58:28;8.98;;;7.07;;
33654;SDS011;19997;51.274;22.506;2023-04-10T07:00:56;9.00;;;5.80;;
33654;SDS011;19997;51.274;22.506;2023-04-10T07:03:29;8.98;;;5.63;;
33654;SDS011;19997;51.274;22.506;2023-04-10T07:05:56;12.25;;;5.82;;
33654;SDS011;19997;51.274;22.506;2023-04-10T07:08:23;9.57;;;5.70;;
33654;SDS011;19997;51.274;22.506;2023-04-10T07:10:50;9.10;;;5.57;;
33654;SDS011;19997;51.274;22.506;2023-04-10T07:13:18;9.68;;;5.50;;
33654;SDS011;19997;51.274;22.506;2023-04-10T07:15:45;10.23;;;5.80;;
33654;SDS011;19997;51.274;22.506;2023-04-10T07:18:12;9.07;;;5.55;;
33654;SDS011;19997;51.274;22.506;2023-04-10T07:20:40;10.63;;;5.93;;
33654;SDS011;19997;51.274;22.506;2023-04-10T07:23:07;10.63;;;5.82;;
33654;SDS011;19997;51.274;22.506;2023-04-10T07:25:35;9.80;;;5.32;;
33654;SDS011;19997;51.274;22.506;2023-04-10T07:28:02;8.88;;;5.72;;
33654;SDS011;19997;51.274;22.506;2023-04-10T07:30:29;9.73;;;5.47;;
33654;SDS011;19997;51.274;22.506;2023-04-10T07:32:56;8.88;;;4.75;;
33654;SDS011;19997;51.274;22.506;2023-04-10T07:35:23;14.32;;;6.05;;
33654;SDS011;19997;51.274;22.506;2023-04-10T07:37:52;11.77;;;6.57;;
33654;SDS011;19997;51.274;22.506;2023-04-10T07:40:19;7.10;;;4.95;;
33654;SDS011;19997;51.274;22.506;2023-04-10T07:42:46;9.85;;;5.43;;
33654;SDS011;19997;51.274;22.506;2023-04-10T07:45:13;8.57;;;5.53;;
33654;SDS011;19997;51.274;22.506;2023-04-10T07:47:41;8.02;;;5.55;;
33654;SDS011;19997;51.274;22.506;2023-04-10T07:50:08;9.35;;;5.43;;
33654;SDS011;19997;51.274;22.506;2023-04-10T07:52:35;10.15;;;5.65;;
33654;SDS011;19997;51.274;22.506;2023-04-10T07:55:04;10.05;;;5.20;;
33654;SDS011;19997;51.274;22.506;2023-04-10T07:57:31;13.95;;;6.28;;
33654;SDS011;19997;51.274;22.506;2023-04-10T07:59:58;10.30;;;5.38;;
33654;SDS011;19997;51.274;22.506;2023-04-10T08:02:25;10.27;;;5.30;;
33654;SDS011;19997;51.274;22.506;2023-04-10T08:05:05;12.52;;;5.47;;
33654;SDS011;19997;51.274;22.506;2023-04-10T08:08:20;9.57;;;5.40;;
33654;SDS011;19997;51.274;22.506;2023-04-10T08:10:49;12.70;;;5.80;;
33654;SDS011;19997;51.274;22.506;2023-04-10T08:13:16;9.32;;;5.18;;
33654;SDS011;19997;51.274;22.506;2023-04-10T08:15:43;7.47;;;5.38;;
33654;SDS011;19997;51.274;22.506;2023-04-10T08:18:10;9.63;;;5.25;;
33654;SDS011;19997;51.274;22.506;2023-04-10T08:20:37;7.50;;;5.20;;
33654;SDS011;19997;51.274;22.506;2023-04-10T08:23:04;9.32;;;5.50;;
33654;SDS011;19997;51.274;22.506;2023-04-10T08:25:31;12.88;;;5.60;;
33654;SDS011;19997;51.274;22.506;2023-04-10T08:34:26;18.38;;;5.93;;
33654;SDS011;19997;51.274;22.506;2023-04-10T08:36:53;8.13;;;4.63;;
33654;SDS011;19997;51.274;22.506;2023-04-10T08:39:21;7.90;;;5.10;;
33654;SDS011;19997;51.274;22.506;2023-04-10T08:41:48;9.43;;;5.68;;
33654;SDS011;19997;51.274;22.506;2023-04-10T08:46:42;6.80;;;5.22;;
33654;SDS011;19997;51.274;22.506;2023-04-10T08:49:19;15.00;;;7.10;;
33654;SDS011;19997;51.274;22.506;2023-04-10T08:51:58;7.38;;;4.88;;
33654;SDS011;19997;51.274;22.506;2023-04-10T08:54:27;8.77;;;4.97;;
33654;SDS011;19997;51.274;22.506;2023-04-10T08:59:26;8.20;;;5.38;;
33654;SDS011;19997;51.274;22.506;2023-04-10T09:01:55;13.63;;;5.43;;
33654;SDS011;19997;51.274;22.506;2023-04-10T09:04:22;10.13;;;5.43;;
33654;SDS011;19997;51.274;22.506;2023-04-10T09:06:52;10.00;;;6.00;;
33654;SDS011;19997;51.274;22.506;2023-04-10T09:09:19;14.73;;;5.50;;
33654;SDS011;19997;51.274;22.506;2023-04-10T09:11:55;9.07;;;5.53;;
33654;SDS011;19997;51.274;22.506;2023-04-10T09:14:25;8.30;;;5.20;;
33654;SDS011;19997;51.274;22.506;2023-04-10T09:17:06;7.88;;;4.93;;
33654;SDS011;19997;51.274;22.506;2023-04-10T09:19:36;13.13;;;5.10;;
33654;SDS011;19997;51.274;22.506;2023-04-10T09:22:05;9.30;;;4.78;;
33654;SDS011;19997;51.274;22.506;2023-04-10T09:24:34;8.68;;;4.70;;
33654;SDS011;19997;51.274;22.506;2023-04-10T09:27:10;8.15;;;4.65;;
33654;SDS011;19997;51.274;22.506;2023-04-10T09:29:52;10.40;;;4.93;;
33654;SDS011;19997;51.274;22.506;2023-04-10T09:32:34;11.15;;;5.55;;
33654;SDS011;19997;51.274;22.506;2023-04-10T09:35:03;8.85;;;4.22;;
33654;SDS011;19997;51.274;22.506;2023-04-10T09:37:33;8.02;;;4.63;;
33654;SDS011;19997;51.274;22.506;2023-04-10T09:40:00;9.32;;;4.60;;
33654;SDS011;19997;51.274;22.506;2023-04-10T09:42:29;11.93;;;5.13;;
33654;SDS011;19997;51.274;22.506;2023-04-10T09:44:57;8.40;;;4.18;;
33654;SDS011;19997;51.274;22.506;2023-04-10T09:47:25;8.27;;;4.13;;
33654;SDS011;19997;51.274;22.506;2023-04-10T09:49:53;8.38;;;3.65;;
33654;SDS011;19997;51.274;22.506;2023-04-10T09:52:22;10.02;;;4.25;;
33654;SDS011;19997;51.274;22.506;2023-04-10T09:54:53;6.47;;;5.22;;
33654;SDS011;19997;51.274;22.506;2023-04-10T09:57:22;7.03;;;4.32;;
33654;SDS011;19997;51.274;22.506;2023-04-10T09:59:50;9.95;;;4.55;;
33654;SDS011;19997;51.274;22.506;2023-04-10T10:02:19;11.07;;;5.13;;
33654;SDS011;19997;51.274;22.506;2023-04-10T10:04:47;6.93;;;4.40;;
33654;SDS011;19997;51.274;22.506;2023-04-10T10:07:15;14.73;;;6.15;;
33654;SDS011;19997;51.274;22.506;2023-04-10T10:09:44;6.28;;;4.20;;
33654;SDS011;19997;51.274;22.506;2023-04-10T10:12:15;11.73;;;5.03;;
33654;SDS011;19997;51.274;22.506;2023-04-10T10:14:48;7.72;;;4.40;;
33654;SDS011;19997;51.274;22.506;2023-04-10T10:17:20;8.50;;;4.80;;
33654;SDS011;19997;51.274;22.506;2023-04-10T10:19:56;9.75;;;4.43;;
33654;SDS011;19997;51.274;22.506;2023-04-10T10:22:28;6.55;;;4.63;;
33654;SDS011;19997;51.274;22.506;2023-04-10T10:24:58;9.93;;;4.07;;
33654;SDS011;19997;51.274;22.506;2023-04-10T10:27:29;8.20;;;4.57;;
33654;SDS011;19997;51.274;22.506;2023-04-10T10:29:58;8.55;;;4.32;;
33654;SDS011;19997;51.274;22.506;2023-04-10T10:32:26;7.57;;;3.83;;
33654;SDS011;19997;51.274;22.506;2023-04-10T10:34:56;7.85;;;4.70;;
33654;SDS011;19997;51.274;22.506;2023-04-10T10:37:26;7.18;;;4.40;;
33654;SDS011;19997;51.274;22.506;2023-04-10T10:39:56;9.77;;;3.90;;
33654;SDS011;19997;51.274;22.506;2023-04-10T10:42:31;7.18;;;4.00;;
33654;SDS011;19997;51.274;22.506;2023-04-10T10:45:05;18.52;;;5.32;;
33654;SDS011;19997;51.274;22.506;2023-04-10T10:47:39;8.30;;;3.75;;
33654;SDS011;19997;51.274;22.506;2023-04-10T10:50:09;8.32;;;3.47;;
33654;SDS011;19997;51.274;22.506;2023-04-10T10:52:40;6.20;;;3.85;;
33654;SDS011;19997;51.274;22.506;2023-04-10T10:55:27;8.18;;;3.30;;
33654;SDS011;19997;51.274;22.506;2023-04-10T10:58:03;11.95;;;3.58;;
33654;SDS011;19997;51.274;22.506;2023-04-10T11:03:31;6.63;;;4.28;;
33654;SDS011;19997;51.274;22.506;2023-04-10T11:05:59;5.78;;;3.47;;
33654;SDS011;19997;51.274;22.506;2023-04-10T11:08:38;8.02;;;3.50;;
33654;SDS011;19997;51.274;22.506;2023-04-10T11:11:09;5.50;;;3.00;;
33654;SDS011;19997;51.274;22.506;2023-04-10T11:16:42;7.45;;;3.47;;
33654;SDS011;19997;51.274;22.506;2023-04-10T11:19:11;5.87;;;3.13;;
33654;SDS011;19997;51.274;22.506;2023-04-10T11:24:28;8.77;;;4.18;;
33654;SDS011;19997;51.274;22.506;2023-04-10T11:26:56;8.60;;;3.22;;
33654;SDS011;19997;51.274;22.506;2023-04-10T11:29:34;6.50;;;3.78;;
33654;SDS011;19997;51.274;22.506;2023-04-10T11:32:05;7.57;;;3.55;;
33654;SDS011;19997;51.274;22.506;2023-04-10T11:34:49;8.65;;;3.45;;
33654;SDS011;19997;51.274;22.506;2023-04-10T11:37:21;5.18;;;3.15;;
33654;SDS011;19997;51.274;22.506;2023-04-10T11:40:01;9.57;;;4.63;;
33654;SDS011;19997;51.274;22.506;2023-04-10T11:42:29;5.75;;;2.95;;
33654;SDS011;19997;51.274;22.506;2023-04-10T11:44:58;11.30;;;3.33;;
33654;SDS011;19997;51.274;22.506;2023-04-10T11:47:25;11.90;;;3.45;;
33654;SDS011;19997;51.274;22.506;2023-04-10T11:49:52;5.10;;;3.15;;
33654;SDS011;19997;51.274;22.506;2023-04-10T11:54:52;6.43;;;2.95;;
33654;SDS011;19997;51.274;22.506;2023-04-10T11:57:23;4.45;;;2.83;;
33654;SDS011;19997;51.274;22.506;2023-04-10T12:00:01;6.82;;;3.58;;
33654;SDS011;19997;51.274;22.506;2023-04-10T12:02:31;14.15;;;4.20;;
33654;SDS011;19997;51.274;22.506;2023-04-10T12:05:15;6.78;;;3.40;;
33654;SDS011;19997;51.274;22.506;2023-04-10T12:07:42;6.40;;;3.00;;
33654;SDS011;19997;51.274;22.506;2023-04-10T12:10:09;6.65;;;2.78;;
33654;SDS011;19997;51.274;22.506;2023-04-10T12:12:36;7.35;;;3.22;;
33654;SDS011;19997;51.274;22.506;2023-04-10T12:17:54;5.70;;;4.00;;
33654;SDS011;19997;51.274;22.506;2023-04-10T12:20:22;5.15;;;3.03;;
33654;SDS011;19997;51.274;22.506;2023-04-10T12:22:53;5.60;;;3.35;;
33654;SDS011;19997;51.274;22.506;2023-04-10T12:25:25;4.88;;;2.85;;
33654;SDS011;19997;51.274;22.506;2023-04-10T12:27:52;5.97;;;3.20;;
33654;SDS011;19997;51.274;22.506;2023-04-10T12:30:19;6.75;;;3.97;;
33654;SDS011;19997;51.274;22.506;2023-04-10T12:32:51;6.57;;;3.45;;
33654;SDS011;19997;51.274;22.506;2023-04-10T12:35:18;8.50;;;4.95;;
33654;SDS011;19997;51.274;22.506;2023-04-10T12:37:46;7.13;;;3.20;;
33654;SDS011;19997;51.274;22.506;2023-04-10T12:40:14;6.55;;;3.33;;
33654;SDS011;19997;51.274;22.506;2023-04-10T12:42:41;6.97;;;3.20;;
33654;SDS011;19997;51.274;22.506;2023-04-10T12:45:08;5.35;;;3.30;;
33654;SDS011;19997;51.274;22.506;2023-04-10T12:47:42;7.65;;;2.95;;
33654;SDS011;19997;51.274;22.506;2023-04-10T12:50:14;6.72;;;2.97;;
33654;SDS011;19997;51.274;22.506;2023-04-10T12:52:42;8.00;;;3.22;;
33654;SDS011;19997;51.274;22.506;2023-04-10T12:55:11;6.68;;;2.35;;
33654;SDS011;19997;51.274;22.506;2023-04-10T12:57:40;4.00;;;2.27;;
33654;SDS011;19997;51.274;22.506;2023-04-10T13:00:09;3.38;;;2.13;;
33654;SDS011;19997;51.274;22.506;2023-04-10T13:02:37;6.45;;;2.20;;
33654;SDS011;19997;51.274;22.506;2023-04-10T13:05:05;6.55;;;2.10;;
33654;SDS011;19997;51.274;22.506;2023-04-10T13:07:34;2.67;;;1.90;;
33654;SDS011;19997;51.274;22.506;2023-04-10T13:10:01;3.38;;;1.70;;
33654;SDS011;19997;51.274;22.506;2023-04-10T13:12:29;2.33;;;2.03;;
33654;SDS011;19997;51.274;22.506;2023-04-10T13:14:58;4.32;;;1.77;;
33654;SDS011;19997;51.274;22.506;2023-04-10T13:17:26;2.75;;;1.85;;
33654;SDS011;19997;51.274;22.506;2023-04-10T13:19:53;3.47;;;1.65;;
33654;SDS011;19997;51.274;22.506;2023-04-10T13:22:20;4.35;;;1.90;;
33654;SDS011;19997;51.274;22.506;2023-04-10T13:24:48;3.17;;;2.20;;
33654;SDS011;19997;51.274;22.506;2023-04-10T13:27:15;2.25;;;1.88;;
33654;SDS011;19997;51.274;22.506;2023-04-10T13:29:43;7.20;;;2.38;;
33654;SDS011;19997;51.274;22.506;2023-04-10T13:32:10;5.68;;;2.30;;
33654;SDS011;19997;51.274;22.506;2023-04-10T13:34:37;3.47;;;2.30;;
33654;SDS011;19997;51.274;22.506;2023-04-10T13:37:04;2.75;;;2.22;;
33654;SDS011;19997;51.274;22.506;2023-04-10T13:39:32;3.55;;;2.38;;
33654;SDS011;19997;51.274;22.506;2023-04-10T13:42:00;3.38;;;2.13;;
33654;SDS011;19997;51.274;22.506;2023-04-10T13:44:27;4.70;;;2.53;;
33654;SDS011;19997;51.274;22.506;2023-04-10T13:46:54;6.50;;;2.88;;
33654;SDS011;19997;51.274;22.506;2023-04-10T13:49:22;5.30;;;2.97;;
33654;SDS011;19997;51.274;22.506;2023-04-10T13:51:49;8.02;;;2.95;;
33654;SDS011;19997;51.274;22.506;2023-04-10T13:54:16;10.75;;;3.30;;
33654;SDS011;19997;51.274;22.506;2023-04-10T13:56:44;7.18;;;3.20;;
33654;SDS011;19997;51.274;22.506;2023-04-10T13:59:12;9.73;;;3.70;;
33654;SDS011;19997;51.274;22.506;2023-04-10T14:01:40;6.13;;;3.03;;
33654;SDS011;19997;51.274;22.506;2023-04-10T14:04:07;5.10;;;2.72;;
33654;SDS011;19997;51.274;22.506;2023-04-10T14:06:34;5.28;;;3.45;;
33654;SDS011;19997;51.274;22.506;2023-04-10T14:09:01;3.85;;;2.80;;
33654;SDS011;19997;51.274;22.506;2023-04-10T14:11:29;9.48;;;3.88;;
33654;SDS011;19997;51.274;22.506;2023-04-10T14:13:57;7.47;;;3.90;;
33654;SDS011;19997;51.274;22.506;2023-04-10T14:16:25;10.48;;;3.78;;
33654;SDS011;19997;51.274;22.506;2023-04-10T14:18:52;7.88;;;4.15;;
33654;SDS011;19997;51.274;22.506;2023-04-10T14:21:20;9.73;;;4.18;;
33654;SDS011;19997;51.274;22.506;2023-04-10T14:23:47;7.95;;;4.10;;
33654;SDS011;19997;51.274;22.506;2023-04-10T14:26:14;7.13;;;4.68;;
33654;SDS011;19997;51.274;22.506;2023-04-10T14:28:41;6.68;;;4.28;;
33654;SDS011;19997;51.274;22.506;2023-04-10T14:31:08;5.97;;;3.65;;
33654;SDS011;19997;51.274;22.506;2023-04-10T14:33:37;5.15;;;3.50;;
33654;SDS011;19997;51.274;22.506;2023-04-10T14:36:04;8.95;;;3.63;;
33654;SDS011;19997;51.274;22.506;2023-04-10T14:38:32;5.30;;;3.85;;
33654;SDS011;19997;51.274;22.506;2023-04-10T14:41:00;9.77;;;3.25;;
33654;SDS011;19997;51.274;22.506;2023-04-10T14:43:27;6.10;;;4.22;;
33654;SDS011;19997;51.274;22.506;2023-04-10T14:45:54;12.50;;;5.13;;
33654;SDS011;19997;51.274;22.506;2023-04-10T14:48:22;7.43;;;4.88;;
33654;SDS011;19997;51.274;22.506;2023-04-10T14:50:50;7.35;;;4.00;;
33654;SDS011;19997;51.274;22.506;2023-04-10T14:53:17;9.27;;;3.72;;
33654;SDS011;19997;51.274;22.506;2023-04-10T14:55:45;7.72;;;3.80;;
33654;SDS011;19997;51.274;22.506;2023-04-10T14:58:12;4.07;;;3.55;;
33654;SDS011;19997;51.274;22.506;2023-04-10T15:00:40;6.38;;;3.60;;
33654;SDS011;19997;51.274;22.506;2023-04-10T15:03:07;7.68;;;4.00;;
33654;SDS011;19997;51.274;22.506;2023-04-10T15:05:35;12.23;;;4.28;;
33654;SDS011;19997;51.274;22.506;2023-04-10T15:08:03;6.32;;;3.72;;
33654;SDS011;19997;51.274;22.506;2023-04-10T15:10:30;6.30;;;3.67;;
33654;SDS011;19997;51.274;22.506;2023-04-10T15:12:58;7.40;;;3.60;;
33654;SDS011;19997;51.274;22.506;2023-04-10T15:15:25;6.93;;;3.33;;
33654;SDS011;19997;51.274;22.506;2023-04-10T15:17:52;5.75;;;3.17;;